createdAt,value
2023-03-29T00:00:27.083Z,67.4110
2023-03-29T00:01:35.965Z,67.2573
2023-03-29T00:02:33.708Z,68.3425
2023-03-29T00:03:36.399Z,69.8243
2023-03-29T00:05:41.232Z,71.9678
2023-03-29T00:06:43.791Z,72.8544
2023-03-29T00:08:48.593Z,74.6788
2023-03-29T00:09:51.073Z,74.5781
2023-03-29T00:10:53.616Z,74.0095
2023-03-29T00:11:56.140Z,74.0760
2023-03-29T00:14:00.996Z,71.1879
2023-03-29T00:15:03.436Z,71.6078
2023-03-29T00:16:05.999Z,72.0463
2023-03-29T00:17:08.544Z,71.5594
2023-03-29T00:18:11.206Z,70.8737
2023-03-29T00:19:13.694Z,71.2907
2023-03-29T00:20:16.241Z,70.3968
2023-03-29T00:22:21.040Z,70.5343
2023-03-29T00:23:23.528Z,69.4328
2023-03-29T00:25:28.413Z,69.2991
2023-03-29T00:26:30.861Z,69.4732
2023-03-29T00:27:33.349Z,69.0356
2023-03-29T00:28:35.901Z,71.9439
2023-03-29T00:30:40.722Z,69.3229
2023-03-29T00:31:43.211Z,69.1174
2023-03-29T00:33:48.070Z,65.6936
2023-03-29T00:34:50.593Z,61.9280
2023-03-29T00:35:53.089Z,64.1157
2023-03-29T00:36:55.605Z,65.9612
2023-03-29T00:37:58.132Z,65.9991
2023-03-29T00:39:00.615Z,65.9606
2023-03-29T00:40:03.131Z,63.5194
2023-03-29T00:42:07.921Z,66.5934
2023-03-29T00:43:10.371Z,66.0330
2023-03-29T00:45:15.234Z,62.8174
2023-03-29T00:47:20.166Z,63.1232
2023-03-29T00:48:22.624Z,64.5222
2023-03-29T00:50:27.478Z,63.8843
2023-03-29T00:51:29.967Z,65.0914
2023-03-29T00:52:32.437Z,65.5112
2023-03-29T00:53:34.914Z,66.7678
2023-03-29T00:54:37.440Z,66.8767
2023-03-29T00:55:39.948Z,65.0549
2023-03-29T00:56:42.590Z,64.2795
2023-03-29T00:58:47.398Z,62.3334
2023-03-29T00:59:49.848Z,62.3154
2023-03-29T01:00:52.435Z,64.9692
2023-03-29T01:01:55.232Z,64.7136
2023-03-29T01:02:58.264Z,60.6659
2023-03-29T01:05:03.192Z,61.0452
2023-03-29T01:06:05.752Z,60.5764
2023-03-29T01:08:10.617Z,62.2254
2023-03-29T01:09:13.153Z,62.5787
2023-03-29T01:10:15.685Z,61.5259
2023-03-29T01:11:18.188Z,61.9681
2023-03-29T01:13:23.168Z,61.9774
2023-03-29T01:14:25.670Z,63.7263
2023-03-29T01:15:28.258Z,63.2209
2023-03-29T01:16:30.812Z,63.3830
2023-03-29T01:19:38.202Z,63.6699
2023-03-29T01:21:43.128Z,61.5094
2023-03-29T01:22:45.723Z,61.6845
2023-03-29T01:24:50.587Z,60.9797
2023-03-29T01:25:53.130Z,61.5337
2023-03-29T01:26:55.636Z,62.0838
2023-03-29T01:27:58.145Z,61.9158
2023-03-29T01:29:00.690Z,61.7688
2023-03-29T01:30:03.172Z,62.3011
2023-03-29T01:31:05.734Z,62.6392
2023-03-29T01:33:10.624Z,60.5333
2023-03-29T01:34:13.189Z,59.8317
2023-03-29T01:35:15.668Z,60.7105
2023-03-29T01:36:18.274Z,62.1015
2023-03-29T01:37:20.838Z,62.2836
2023-03-29T01:38:23.404Z,61.4500
2023-03-29T01:39:25.871Z,62.9318
2023-03-29T01:41:30.752Z,60.6751
2023-03-29T01:42:33.296Z,61.0293
2023-03-29T01:43:35.900Z,62.8280
2023-03-29T01:44:38.435Z,62.7295
2023-03-29T01:45:40.892Z,62.4484
2023-03-29T01:46:43.439Z,62.7853
2023-03-29T01:47:46.060Z,62.4978
2023-03-29T01:49:50.939Z,62.5431
2023-03-29T01:50:53.547Z,63.5188
2023-03-29T01:51:56.101Z,64.1309
2023-03-29T01:52:58.640Z,64.5331
2023-03-29T01:55:03.490Z,65.4859
2023-03-29T01:56:05.959Z,64.7153
2023-03-29T01:57:08.498Z,63.4770
2023-03-29T01:58:10.953Z,64.8151
2023-03-29T01:59:13.508Z,64.0919
2023-03-29T02:00:16.066Z,65.0554
2023-03-29T02:01:18.600Z,63.3325
2023-03-29T02:02:21.169Z,64.0333
2023-03-29T02:03:23.794Z,64.6927
2023-03-29T02:04:26.406Z,65.9063
2023-03-29T02:06:31.272Z,64.0955
2023-03-29T02:08:36.087Z,64.2564
2023-03-29T02:09:38.635Z,62.8719
2023-03-29T02:10:41.113Z,63.4537
2023-03-29T02:11:43.578Z,64.5705
2023-03-29T02:12:46.166Z,66.1866
2023-03-29T02:13:48.713Z,63.7083
2023-03-29T02:14:51.200Z,63.5276
2023-03-29T02:15:53.748Z,64.1174
2023-03-29T02:17:58.619Z,65.8148
2023-03-29T02:19:01.392Z,64.7356
2023-03-29T02:20:03.846Z,64.3133
2023-03-29T02:21:06.402Z,66.7023
2023-03-29T02:22:08.891Z,66.6184
2023-03-29T02:23:11.433Z,68.2094
2023-03-29T02:25:16.278Z,65.6217
2023-03-29T02:26:18.790Z,63.9657
2023-03-29T02:27:21.332Z,63.6588
2023-03-29T02:28:23.790Z,64.3920
2023-03-29T02:29:26.336Z,65.5706
2023-03-29T02:31:31.269Z,65.2825
2023-03-29T02:33:36.089Z,64.8738
2023-03-29T02:34:38.672Z,64.4848
2023-03-29T02:36:43.552Z,64.0260
2023-03-29T02:37:46.061Z,66.3680
2023-03-29T02:38:48.563Z,65.8895
2023-03-29T02:39:51.085Z,64.6540
2023-03-29T02:41:55.934Z,63.0574
2023-03-29T02:42:58.416Z,63.3356
2023-03-29T02:44:00.990Z,67.0542
2023-03-29T02:45:03.538Z,69.8861
2023-03-29T02:47:08.390Z,65.9256
2023-03-29T02:49:13.266Z,65.8106
2023-03-29T02:50:15.796Z,67.4040
2023-03-29T02:51:20.016Z,64.8606
2023-03-29T02:52:18.413Z,66.2003
2023-03-29T02:53:21.067Z,64.8063
2023-03-29T02:54:23.565Z,64.1948
2023-03-29T02:55:26.163Z,62.8685
2023-03-29T02:56:28.680Z,67.3714
2023-03-29T02:57:31.198Z,67.2518
2023-03-29T02:58:33.753Z,67.9068
2023-03-29T02:59:36.255Z,68.1647
2023-03-29T03:00:38.836Z,68.3821
2023-03-29T03:01:41.331Z,68.2369
2023-03-29T03:03:46.374Z,68.5816
2023-03-29T03:04:48.966Z,66.6844
2023-03-29T03:06:53.851Z,65.2940
2023-03-29T03:07:56.387Z,65.6007
2023-03-29T03:08:58.905Z,64.1095
2023-03-29T03:10:01.469Z,64.4797
2023-03-29T03:11:04.226Z,66.0211
2023-03-29T03:13:09.520Z,65.0755
2023-03-29T03:14:12.022Z,64.6520
2023-03-29T03:15:14.573Z,65.3712
2023-03-29T03:16:17.070Z,66.2287
2023-03-29T03:18:21.930Z,67.7833
2023-03-29T03:19:24.468Z,65.7516
2023-03-29T03:20:27.076Z,66.5182
2023-03-29T03:21:29.596Z,65.4404
2023-03-29T03:23:34.610Z,66.4947
2023-03-29T03:24:37.114Z,67.4259
2023-03-29T03:25:39.653Z,67.0605
2023-03-29T03:26:42.138Z,66.8998
2023-03-29T03:31:54.349Z,59.7881
2023-03-29T03:32:57.156Z,61.2155
2023-03-29T03:33:59.684Z,64.6553
2023-03-29T03:35:02.237Z,64.2628
2023-03-29T03:36:04.830Z,64.1254
2023-03-29T03:37:07.336Z,64.2744
2023-03-29T03:38:09.894Z,67.2199
2023-03-29T03:39:12.394Z,67.2646
2023-03-29T03:40:14.949Z,64.8545
2023-03-29T03:41:17.415Z,65.2370
2023-03-29T03:42:19.957Z,63.8856
2023-03-29T03:43:22.610Z,65.8725
2023-03-29T03:45:27.626Z,65.0890
2023-03-29T03:47:32.661Z,64.9974
2023-03-29T03:48:35.143Z,66.3660
2023-03-29T03:49:37.641Z,68.2585
2023-03-29T03:50:40.115Z,68.6515
2023-03-29T03:51:42.642Z,67.7156
2023-03-29T03:52:45.219Z,68.2900
2023-03-29T03:53:47.706Z,67.6401
2023-03-29T03:54:50.245Z,68.5439
2023-03-29T03:55:52.852Z,69.4631
2023-03-29T03:56:55.401Z,67.9825
2023-03-29T03:57:57.959Z,67.4624
2023-03-29T03:59:00.550Z,68.2370
2023-03-29T04:00:03.141Z,69.4583
2023-03-29T04:01:05.584Z,65.9411
2023-03-29T04:02:08.138Z,65.0026
2023-03-29T04:04:13.047Z,65.5214
2023-03-29T04:05:15.493Z,67.4455
2023-03-29T04:06:18.086Z,68.7103
2023-03-29T04:07:20.592Z,65.6384
2023-03-29T04:08:23.171Z,64.7211
2023-03-29T04:10:27.982Z,68.6501
2023-03-29T04:11:30.481Z,69.5524
2023-03-29T04:12:33.033Z,68.0822
2023-03-29T04:13:35.576Z,62.3654
2023-03-29T04:15:40.398Z,65.1175
2023-03-29T04:16:42.964Z,65.7616
2023-03-29T04:18:47.829Z,62.9951
2023-03-29T04:19:50.376Z,65.1507
2023-03-29T04:20:52.947Z,64.5311
2023-03-29T04:21:55.390Z,65.3153
2023-03-29T04:22:57.887Z,64.9190
2023-03-29T04:25:02.715Z,63.9382
2023-03-29T04:26:05.266Z,63.3145
2023-03-29T04:28:10.209Z,60.4375
2023-03-29T04:29:12.724Z,60.4411
2023-03-29T04:30:15.229Z,60.4727
2023-03-29T04:31:17.782Z,60.8338
2023-03-29T04:32:20.277Z,63.1883
2023-03-29T04:33:22.776Z,62.2969
2023-03-29T04:34:25.264Z,62.9070
2023-03-29T04:35:27.739Z,61.7234
2023-03-29T04:37:32.646Z,64.2363
2023-03-29T04:38:35.153Z,65.1512
2023-03-29T04:39:37.647Z,64.9769
2023-03-29T04:40:40.141Z,63.6034
2023-03-29T04:42:44.976Z,64.4739
2023-03-29T04:43:47.509Z,62.5856
2023-03-29T04:44:50.080Z,62.5824
2023-03-29T04:45:52.656Z,63.0798
2023-03-29T04:46:55.358Z,61.2119
2023-03-29T04:47:57.912Z,63.7149
2023-03-29T04:49:00.479Z,65.0147
2023-03-29T04:50:02.964Z,65.1134
2023-03-29T04:51:05.482Z,63.9901
2023-03-29T04:52:08.014Z,60.9537
2023-03-29T04:53:10.528Z,57.9074
2023-03-29T04:54:13.088Z,57.4399
2023-03-29T04:55:15.649Z,55.9396
2023-03-29T04:56:18.091Z,55.5991
2023-03-29T04:57:20.685Z,54.1585
2023-03-29T04:59:25.508Z,55.8129
2023-03-29T05:00:28.064Z,54.7259
2023-03-29T05:01:30.587Z,54.4180
2023-03-29T05:02:33.146Z,55.1763
2023-03-29T05:03:35.766Z,55.8696
2023-03-29T05:05:40.584Z,55.5533
2023-03-29T05:06:43.170Z,55.4182
2023-03-29T05:07:45.717Z,55.7259
2023-03-29T05:08:48.172Z,56.3348
2023-03-29T05:09:50.684Z,55.9383
2023-03-29T05:10:53.173Z,54.5498
2023-03-29T05:11:55.727Z,53.8764
2023-03-29T05:14:00.509Z,53.6812
2023-03-29T05:18:10.266Z,55.4900
2023-03-29T05:19:12.810Z,54.1547
2023-03-29T05:20:15.458Z,54.4987
2023-03-29T05:22:20.300Z,55.8336
2023-03-29T05:24:25.073Z,56.5468
2023-03-29T05:25:27.865Z,56.1430
2023-03-29T05:26:30.363Z,57.0837
2023-03-29T05:27:33.021Z,57.4295
2023-03-29T05:28:35.576Z,57.8047
2023-03-29T05:29:38.112Z,57.0099
2023-03-29T05:30:40.599Z,56.8397
2023-03-29T05:31:43.173Z,55.8493
2023-03-29T05:32:45.739Z,54.8831
2023-03-29T05:33:48.188Z,55.6802
2023-03-29T05:35:53.114Z,54.9239
2023-03-29T05:36:55.571Z,54.5268
2023-03-29T05:37:58.092Z,59.3406
2023-03-29T05:40:05.825Z,59.5674
2023-03-29T05:41:04.589Z,56.7740
2023-03-29T05:43:09.596Z,56.1807
2023-03-29T05:44:12.139Z,55.4413
2023-03-29T05:45:14.677Z,55.6357
2023-03-29T05:46:17.234Z,55.4733
2023-03-29T05:47:19.944Z,57.7823
2023-03-29T05:49:24.812Z,58.0174
2023-03-29T05:50:27.330Z,57.5781
2023-03-29T05:52:32.204Z,56.7207
2023-03-29T05:53:34.684Z,57.5833
2023-03-29T05:55:39.466Z,59.2513
2023-03-29T05:56:41.995Z,59.0561
2023-03-29T05:58:46.845Z,58.0713
2023-03-29T05:59:49.283Z,59.3105
2023-03-29T06:00:51.803Z,58.2285
2023-03-29T06:01:54.383Z,59.1484
2023-03-29T06:03:03.654Z,58.7163
2023-03-29T06:05:03.156Z,59.3614
2023-03-29T06:06:05.743Z,59.3549
2023-03-29T06:07:08.192Z,59.3039
2023-03-29T06:08:10.742Z,60.3504
2023-03-29T06:09:13.263Z,60.4423
2023-03-29T06:10:15.757Z,61.0431
2023-03-29T06:11:18.302Z,58.0084
2023-03-29T06:20:39.535Z,57.0071
2023-03-29T06:22:44.328Z,56.3152
2023-03-29T06:23:46.765Z,55.0643
2023-03-29T06:24:49.410Z,56.0733
2023-03-29T06:25:51.871Z,55.8647
2023-03-29T06:27:56.795Z,55.9326
2023-03-29T06:28:59.247Z,56.0081
2023-03-29T06:30:01.744Z,56.3480
2023-03-29T06:31:04.468Z,56.7494
2023-03-29T06:32:07.596Z,57.0254
2023-03-29T06:34:12.371Z,58.4878
2023-03-29T06:35:14.855Z,55.7386
2023-03-29T06:37:19.712Z,56.8086
2023-03-29T06:38:22.148Z,55.7172
2023-03-29T06:39:24.621Z,55.0627
2023-03-29T06:40:27.078Z,56.2758
2023-03-29T06:41:29.542Z,56.0361
2023-03-29T06:42:31.961Z,55.1977
2023-03-29T06:44:36.661Z,55.3058
2023-03-29T06:46:41.516Z,53.6868
2023-03-29T06:47:43.986Z,54.8922
2023-03-29T06:48:46.427Z,54.2598
2023-03-29T06:49:48.869Z,54.4398
2023-03-29T06:50:51.369Z,54.6106
2023-03-29T06:52:56.153Z,53.2860
2023-03-29T06:53:58.586Z,55.4343
2023-03-29T06:55:01.110Z,56.0564
2023-03-29T06:56:03.559Z,54.3972
2023-03-29T06:57:06.058Z,55.6784
2023-03-29T06:58:08.514Z,55.2251
2023-03-29T06:59:10.969Z,54.4909
2023-03-29T07:00:13.444Z,53.7947
2023-03-29T07:01:16.011Z,53.2460
2023-03-29T07:02:18.486Z,53.1963
2023-03-29T07:04:23.270Z,52.9852
2023-03-29T07:05:25.726Z,53.2115
2023-03-29T07:06:28.164Z,54.0352
2023-03-29T07:07:30.617Z,54.3057
2023-03-29T07:08:33.050Z,55.5426
2023-03-29T07:09:35.559Z,56.3822
2023-03-29T07:10:38.031Z,59.9210
2023-03-29T07:12:42.770Z,65.6766
2023-03-29T07:13:45.193Z,63.5291
2023-03-29T07:14:47.647Z,63.3874
2023-03-29T07:15:50.105Z,66.0940
2023-03-29T07:17:54.895Z,66.9706
2023-03-29T07:18:57.338Z,67.6038
2023-03-29T07:19:58.420Z,67.1146
2023-03-29T07:22:03.161Z,66.7584
2023-03-29T07:23:05.571Z,67.3138
2023-03-29T07:24:08.063Z,67.9367
2023-03-29T07:25:10.540Z,65.8544
2023-03-29T07:26:13.026Z,66.3012
2023-03-29T07:27:15.413Z,68.0485
2023-03-29T07:28:17.879Z,66.5424
2023-03-29T07:29:20.359Z,67.1283
2023-03-29T07:30:22.821Z,65.4270
2023-03-29T07:31:25.278Z,67.0120
2023-03-29T07:32:27.825Z,66.5324
2023-03-29T07:34:32.656Z,66.3563
2023-03-29T07:35:35.193Z,66.9470
2023-03-29T07:37:39.922Z,66.8141
2023-03-29T07:38:42.330Z,67.6195
2023-03-29T07:39:44.773Z,66.7559
2023-03-29T07:40:47.233Z,67.2326
2023-03-29T07:42:52.635Z,66.3644
2023-03-29T07:43:55.039Z,61.4079
2023-03-29T07:44:57.477Z,63.4469
2023-03-29T07:45:59.950Z,66.7389
2023-03-29T07:47:02.352Z,65.4990
2023-03-29T07:48:04.932Z,66.5552
2023-03-29T07:49:07.352Z,62.9343
2023-03-29T07:50:09.795Z,59.3163
2023-03-29T07:51:12.206Z,64.1226
2023-03-29T07:52:14.627Z,65.4229
2023-03-29T07:53:17.055Z,63.8778
2023-03-29T07:54:19.538Z,65.2392
2023-03-29T07:55:22.035Z,64.0194
2023-03-29T07:56:24.458Z,61.7983
2023-03-29T07:57:27.219Z,60.7935
2023-03-29T07:59:32.063Z,60.1906
2023-03-29T08:00:34.555Z,59.4232
2023-03-29T08:02:39.170Z,60.2814
2023-03-29T08:03:41.654Z,61.7462
2023-03-29T08:05:46.369Z,62.0795
2023-03-29T08:06:48.774Z,61.9551
2023-03-29T08:07:51.236Z,62.9008
2023-03-29T08:08:53.633Z,62.9435
2023-03-29T08:09:56.031Z,60.5919
2023-03-29T08:10:58.476Z,62.0965
2023-03-29T08:12:00.914Z,60.5693
2023-03-29T08:13:03.330Z,58.5407
2023-03-29T08:14:05.774Z,61.4535
2023-03-29T08:16:10.442Z,63.5372
2023-03-29T08:17:12.941Z,62.4502
2023-03-29T08:19:17.711Z,64.1570
2023-03-29T08:20:20.173Z,64.6091
2023-03-29T08:22:24.843Z,63.6468
2023-03-29T08:24:29.545Z,64.3450
2023-03-29T08:25:32.044Z,65.4049
2023-03-29T08:26:34.431Z,64.2049
2023-03-29T08:27:36.902Z,64.9230
2023-03-29T08:29:41.824Z,62.7534
2023-03-29T08:31:46.526Z,63.7915
2023-03-29T08:32:51.078Z,62.0247
2023-03-29T08:33:51.082Z,60.2809
2023-03-29T08:35:55.825Z,62.0898
2023-03-29T08:38:00.507Z,62.1982
2023-03-29T08:39:02.979Z,61.3958
2023-03-29T08:40:05.372Z,60.2192
2023-03-29T08:41:07.839Z,60.1517
2023-03-29T08:42:10.218Z,60.1253
2023-03-29T08:43:12.676Z,61.2448
2023-03-29T08:44:15.056Z,59.3008
2023-03-29T08:46:19.802Z,59.5470
2023-03-29T08:47:22.247Z,58.7296
2023-03-29T08:49:26.931Z,59.6119
2023-03-29T08:51:31.524Z,57.1521
2023-03-29T08:52:33.993Z,59.5801
2023-03-29T08:53:36.391Z,60.9567
2023-03-29T08:54:38.900Z,57.3776
2023-03-29T08:55:41.386Z,56.9349
2023-03-29T08:57:46.019Z,56.3207
2023-03-29T08:58:48.384Z,56.7200
2023-03-29T08:59:50.810Z,58.0342
2023-03-29T09:00:53.233Z,55.9240
2023-03-29T09:02:58.313Z,55.6014
2023-03-29T09:04:00.902Z,55.9339
2023-03-29T09:06:05.568Z,54.5489
2023-03-29T09:08:10.351Z,54.7764
2023-03-29T09:09:12.776Z,54.7096
2023-03-29T09:11:17.529Z,54.2603
2023-03-29T09:12:19.989Z,54.0446
2023-03-29T09:13:22.387Z,54.9163
2023-03-29T09:14:24.835Z,55.7421
2023-03-29T09:15:27.260Z,54.9098
2023-03-29T09:16:29.763Z,55.6645
2023-03-29T09:17:32.218Z,56.5100
2023-03-29T09:18:34.688Z,57.3648
2023-03-29T09:19:37.072Z,56.2849
2023-03-29T09:20:39.537Z,57.0518
2023-03-29T09:21:41.986Z,59.0013
2023-03-29T09:22:44.376Z,58.5752
2023-03-29T09:24:49.110Z,57.0073
2023-03-29T09:25:54.202Z,57.1485
2023-03-29T09:26:52.221Z,58.7282
2023-03-29T09:27:54.675Z,57.0344
2023-03-29T09:28:57.173Z,57.8576
2023-03-29T09:29:59.560Z,56.8059
2023-03-29T09:31:02.270Z,56.0985
2023-03-29T09:32:04.868Z,56.1424
2023-03-29T09:33:07.363Z,56.9665
2023-03-29T09:34:09.781Z,57.1237
2023-03-29T09:36:14.604Z,57.7141
2023-03-29T09:37:17.004Z,58.1660
2023-03-29T09:38:19.516Z,58.6398
2023-03-29T09:39:21.942Z,57.5108
2023-03-29T09:41:26.646Z,59.6899
2023-03-29T09:42:29.073Z,58.5747
2023-03-29T09:43:31.536Z,58.6333
2023-03-29T09:44:33.936Z,56.7628
2023-03-29T09:46:38.651Z,58.4516
2023-03-29T09:47:41.141Z,59.7798
2023-03-29T09:48:43.597Z,55.2851
2023-03-29T09:49:46.102Z,57.5472
2023-03-29T09:50:48.530Z,56.2675
2023-03-29T09:52:53.268Z,56.1948
2023-03-29T09:53:55.752Z,57.0859
2023-03-29T09:56:00.533Z,56.6352
2023-03-29T09:57:03.058Z,56.3959
2023-03-29T09:58:05.468Z,57.3678
2023-03-29T09:59:07.918Z,57.8357
2023-03-29T10:00:10.352Z,58.8436
2023-03-29T10:01:12.856Z,58.2891
2023-03-29T10:03:17.504Z,56.1766
2023-03-29T10:04:19.981Z,57.8581
2023-03-29T10:06:24.638Z,57.3986
2023-03-29T10:07:27.082Z,57.0471
2023-03-29T10:08:29.483Z,56.5939
2023-03-29T10:09:32.074Z,55.9285
2023-03-29T10:10:34.481Z,56.0041
2023-03-29T10:11:37.022Z,55.7532
2023-03-29T10:12:39.454Z,55.6798
2023-03-29T10:13:41.834Z,55.5823
2023-03-29T10:15:46.494Z,54.7472
2023-03-29T10:16:49.013Z,54.8160
2023-03-29T10:18:53.638Z,56.4902
2023-03-29T10:19:56.061Z,55.9705
2023-03-29T10:20:58.461Z,54.2793
2023-03-29T10:22:00.867Z,54.9357
2023-03-29T10:23:03.307Z,55.0474
2023-03-29T10:24:05.681Z,53.7874
2023-03-29T10:25:08.087Z,55.2380
2023-03-29T10:27:12.740Z,55.8330
2023-03-29T10:28:15.119Z,55.6837
2023-03-29T10:29:17.554Z,54.7973
2023-03-29T10:30:19.945Z,52.3956
2023-03-29T10:31:22.378Z,53.2255
2023-03-29T10:32:24.857Z,52.8147
2023-03-29T10:33:27.197Z,54.6063
2023-03-29T10:34:29.670Z,53.8307
2023-03-29T10:35:32.112Z,51.9763
2023-03-29T10:36:34.510Z,53.4400
2023-03-29T10:37:36.864Z,53.4566
2023-03-29T10:39:41.486Z,49.4992
2023-03-29T10:40:43.801Z,51.1885
2023-03-29T10:41:46.187Z,53.6249
2023-03-29T10:42:48.527Z,51.2139
2023-03-29T10:43:51.149Z,51.0152
2023-03-29T10:44:54.337Z,52.5020
2023-03-29T16:02:32.911Z,45.0136
2023-03-29T16:03:33.139Z,44.6822
2023-03-29T16:04:33.414Z,44.1680
2023-03-29T16:05:33.618Z,44.4974
2023-03-29T16:06:33.795Z,45.3485
2023-03-29T16:07:34.047Z,48.3995
2023-03-29T16:08:34.275Z,48.3600
2023-03-29T16:09:34.445Z,46.8180
2023-03-29T16:10:34.653Z,47.7067
2023-03-29T16:11:34.854Z,47.5185
2023-03-29T16:12:35.045Z,48.2869
2023-03-29T16:13:35.271Z,51.9294
2023-03-29T16:14:35.404Z,55.3589
2023-03-29T16:15:35.650Z,54.0590
2023-03-29T16:16:36.987Z,54.5304
2023-03-29T16:17:37.248Z,57.4284
2023-03-29T16:18:37.463Z,58.5876
2023-03-29T16:19:37.749Z,56.5668
2023-03-29T16:21:37.987Z,57.6020
2023-03-29T16:22:38.239Z,57.1870
2023-03-29T16:23:38.442Z,57.3040
2023-03-29T16:24:38.638Z,58.2947
2023-03-29T16:25:38.852Z,57.2833
2023-03-29T16:26:39.124Z,58.9153
2023-03-29T16:27:39.288Z,56.6943
2023-03-29T16:28:39.498Z,57.3785
2023-03-29T16:29:39.700Z,59.1025
2023-03-29T16:30:39.906Z,58.2822
2023-03-29T16:31:40.331Z,57.9330
2023-03-29T16:32:40.750Z,58.8099
2023-03-29T16:33:41.003Z,58.6982
2023-03-29T16:34:41.514Z,57.1786
2023-03-29T16:35:42.016Z,57.1873
2023-03-29T16:36:42.170Z,59.4545
2023-03-29T16:37:42.391Z,58.9875
2023-03-29T16:38:42.585Z,59.8353
2023-03-29T16:39:42.825Z,60.8417
2023-03-29T16:40:43.005Z,61.6740
2023-03-29T16:41:43.198Z,60.8086
2023-03-29T16:42:43.419Z,61.5058
2023-03-29T16:43:43.615Z,61.5861
2023-03-29T16:44:43.847Z,62.2942
2023-03-29T16:45:44.026Z,63.2254
2023-03-29T16:46:44.234Z,64.0433
2023-03-29T16:47:44.567Z,64.3091
2023-03-29T16:48:44.857Z,63.4158
2023-03-29T16:49:45.953Z,65.1461
2023-03-29T16:50:46.228Z,64.1432
2023-03-29T16:51:46.451Z,62.7851
2023-03-29T16:52:46.702Z,64.3525
2023-03-29T16:53:46.915Z,64.2717
2023-03-29T16:54:47.133Z,64.9133
2023-03-29T16:55:47.352Z,64.7287
2023-03-29T16:56:47.593Z,64.5926
2023-03-29T16:57:47.757Z,66.0642
2023-03-29T16:58:48.022Z,64.0390
2023-03-29T16:59:48.288Z,64.1157
2023-03-29T17:00:48.697Z,66.8338
2023-03-29T17:01:48.926Z,65.5635
2023-03-29T17:02:49.229Z,62.6714
2023-03-29T17:03:49.532Z,64.3122
2023-03-29T17:04:49.931Z,66.0353
2023-03-29T17:05:50.258Z,65.0285
2023-03-29T17:06:50.694Z,64.0585
2023-03-29T17:07:50.899Z,63.1804
2023-03-29T17:08:51.136Z,64.9517
2023-03-29T17:09:51.371Z,66.6856
2023-03-29T17:10:51.596Z,64.1239
2023-03-29T17:11:52.819Z,66.3244
2023-03-29T17:12:53.164Z,65.1941
2023-03-29T17:13:53.499Z,66.4055
2023-03-29T17:14:53.825Z,65.4749
2023-03-29T17:15:54.109Z,64.5532
2023-03-29T17:16:54.339Z,64.5065
2023-03-29T17:17:54.591Z,65.3333
2023-03-29T17:18:54.837Z,67.3204
2023-03-29T17:19:55.192Z,64.6614
2023-03-29T17:20:55.460Z,63.8840
2023-03-29T17:21:55.667Z,64.6590
2023-03-29T17:22:55.973Z,64.6094
2023-03-29T17:23:56.240Z,64.9147
2023-03-29T17:24:56.573Z,65.0014
2023-03-29T17:25:56.778Z,64.7668
2023-03-29T17:26:57.048Z,66.4430
2023-03-29T17:27:57.293Z,65.6521
2023-03-29T17:28:57.503Z,63.7797
2023-03-29T17:30:57.889Z,64.4823
2023-03-29T17:31:58.082Z,65.5768
2023-03-29T17:32:58.299Z,64.7209
2023-03-29T17:33:58.565Z,64.2807
2023-03-29T17:34:58.792Z,65.5380
2023-03-29T17:35:59.288Z,66.2432
2023-03-29T17:36:59.743Z,65.5672
2023-03-29T17:37:59.957Z,66.0305
2023-03-29T17:39:02.364Z,63.9800
2023-03-29T17:40:00.616Z,65.4443
2023-03-29T17:41:00.930Z,66.7462
2023-03-29T17:42:01.168Z,66.5922
2023-03-29T17:43:01.592Z,66.2090
2023-03-29T17:44:01.964Z,68.2333
2023-03-29T17:45:02.205Z,67.0585
2023-03-29T17:46:02.611Z,67.3841
2023-03-29T17:47:03.361Z,68.6858
2023-03-29T17:48:06.246Z,69.0063
2023-03-29T17:49:04.656Z,68.4301
2023-03-29T17:50:05.272Z,68.8270
2023-03-29T17:51:05.625Z,68.6960
2023-03-29T17:52:05.834Z,67.8444
2023-03-29T17:53:06.179Z,67.0522
2023-03-29T17:54:06.480Z,67.7480
2023-03-29T17:55:06.664Z,66.6622
2023-03-29T17:56:06.942Z,67.1318
2023-03-29T17:57:07.171Z,67.9535
2023-03-29T17:58:07.406Z,67.5525
2023-03-29T17:59:07.642Z,69.2487
2023-03-29T18:00:07.938Z,70.2528
2023-03-29T18:01:08.519Z,69.1036
2023-03-29T18:02:08.841Z,68.2788
2023-03-29T18:03:09.071Z,68.6898
2023-03-29T18:04:09.476Z,68.7741
2023-03-29T18:05:09.700Z,68.7112
2023-03-29T18:06:09.916Z,68.8173
2023-03-29T18:07:10.093Z,69.0592
2023-03-29T18:08:10.328Z,68.7008
2023-03-29T18:09:10.520Z,68.4279
2023-03-29T18:10:10.951Z,68.1088
2023-03-29T18:11:11.231Z,67.9251
2023-03-29T18:12:11.481Z,68.6604
2023-03-29T18:13:11.832Z,68.3969
2023-03-29T18:14:12.053Z,68.8441
2023-03-29T18:15:12.251Z,69.7304
2023-03-29T18:16:12.487Z,67.9091
2023-03-29T18:17:12.734Z,67.2350
2023-03-29T18:18:12.910Z,67.6594
2023-03-29T18:19:13.182Z,68.3879
2023-03-29T18:20:13.428Z,67.4188
2023-03-29T18:21:13.715Z,67.3879
2023-03-29T18:22:14.555Z,67.0551
2023-03-29T18:23:15.074Z,66.8928
2023-03-29T18:24:15.478Z,67.5190
2023-03-29T18:25:15.795Z,67.9189
2023-03-29T18:26:16.272Z,67.9880
2023-03-29T18:27:16.536Z,69.2439
2023-03-29T18:28:16.729Z,68.8075
2023-03-29T18:29:17.014Z,69.9218
2023-03-29T18:30:17.292Z,69.5000
2023-03-29T18:31:17.739Z,69.3331
2023-03-29T18:32:18.047Z,67.7317
2023-03-29T18:33:18.328Z,67.1249
2023-03-29T18:34:18.541Z,67.8566
2023-03-29T18:35:18.818Z,68.4498
2023-03-29T18:36:19.074Z,67.4076
2023-03-29T18:37:19.643Z,68.6809
2023-03-29T18:38:19.933Z,69.1240
2023-03-29T18:39:20.171Z,69.1536
2023-03-29T18:40:20.373Z,68.2575
2023-03-29T18:41:20.666Z,68.4390
2023-03-29T18:43:21.011Z,67.6096
2023-03-29T18:44:21.224Z,68.1531
2023-03-29T18:45:21.650Z,67.0914
2023-03-29T18:46:22.110Z,68.0092
2023-03-29T18:47:22.462Z,71.1365
2023-03-29T18:48:22.859Z,74.5944
2023-03-29T18:49:23.072Z,71.1010
2023-03-29T18:50:23.297Z,70.9280
2023-03-29T18:51:23.493Z,75.8936
2023-03-29T18:53:23.794Z,76.4924
2023-03-29T18:54:24.114Z,74.7132
2023-03-29T18:55:24.364Z,76.1794
2023-03-29T18:56:24.595Z,78.0658
2023-03-29T18:57:24.962Z,78.9916
2023-03-29T18:58:25.193Z,70.5787
2023-03-29T18:59:25.458Z,69.6831
2023-03-29T19:00:25.723Z,72.3439
2023-03-29T19:01:25.972Z,72.7677
2023-03-29T19:02:26.263Z,70.0387
2023-03-29T19:03:26.607Z,71.8378
2023-03-29T19:04:27.025Z,71.4180
2023-03-29T19:05:27.340Z,71.4144
2023-03-29T19:06:27.561Z,70.0321
2023-03-29T19:07:27.874Z,71.5328
2023-03-29T19:08:28.229Z,70.6734
2023-03-29T19:09:28.507Z,72.1287
2023-03-29T19:10:28.813Z,71.6231
2023-03-29T19:11:29.176Z,72.7693
2023-03-29T19:12:29.487Z,72.8062
2023-03-29T19:13:29.764Z,74.8001
2023-03-29T19:14:30.078Z,78.3709
2023-03-29T19:15:30.437Z,75.5734
2023-03-29T19:16:30.755Z,78.7219
2023-03-29T19:17:31.074Z,81.7106
2023-03-29T19:18:31.390Z,83.7766
2023-03-29T19:19:31.663Z,82.8882
2023-03-29T19:20:31.922Z,82.6106
2023-03-29T19:21:32.307Z,81.2688
2023-03-29T19:23:32.748Z,78.8135
2023-03-29T19:24:32.977Z,79.8107
2023-03-29T19:25:33.265Z,79.2722
2023-03-29T19:26:33.614Z,79.8776
2023-03-29T19:27:33.885Z,77.7873
2023-03-29T19:28:34.148Z,78.6361
2023-03-29T19:29:34.410Z,76.4951
2023-03-29T19:30:34.697Z,75.9045
2023-03-29T19:31:35.078Z,71.7361
2023-03-29T19:32:35.340Z,72.4246
2023-03-29T19:33:35.612Z,72.1412
2023-03-29T19:34:35.915Z,68.0410
2023-03-29T19:35:36.343Z,67.9775
2023-03-29T19:36:36.589Z,72.4102
2023-03-29T19:37:36.921Z,68.4885
2023-03-29T19:38:37.162Z,69.2739
2023-03-29T19:39:37.459Z,71.8163
2023-03-29T19:40:37.774Z,71.0494
2023-03-29T19:41:39.441Z,70.6418
2023-03-29T19:42:38.526Z,71.5343
2023-03-29T19:43:38.866Z,72.6905
2023-03-29T19:44:39.158Z,72.0154
2023-03-29T19:45:39.432Z,73.5116
2023-03-29T19:46:39.737Z,73.3281
2023-03-29T19:47:40.114Z,71.6125
2023-03-29T19:48:40.454Z,73.6087
2023-03-29T19:49:40.799Z,72.7547
2023-03-29T19:50:41.195Z,73.1024
2023-03-29T19:51:41.520Z,73.7702
2023-03-29T19:52:41.754Z,74.0237
2023-03-29T19:53:42.056Z,73.5376
2023-03-29T19:54:42.357Z,72.7462